sensor_id;sensor_type;location;lat;lon;timestamp;pressure;altitude;pressure_sealevel;temperature;humidity
50632;BME280;49583;45.590;-122.498;2023-07-28T00:01:07;101202.63;;;30.67;29.63
50632;BME280;49583;45.590;-122.498;2023-07-28T00:03:20;101203.92;;;30.68;29.44
50632;BME280;49583;45.590;-122.498;2023-07-28T00:05:33;101199.11;;;30.65;29.49
50632;BME280;49583;45.590;-122.498;2023-07-28T00:07:46;101199.11;;;30.62;29.68
50632;BME280;49583;45.590;-122.498;2023-07-28T00:09:59;101199.56;;;30.59;29.68
50632;BME280;49583;45.590;-122.498;2023-07-28T00:12:13;101197.34;;;30.56;29.80
50632;BME280;49583;45.590;-122.498;2023-07-28T00:14:26;101197.69;;;30.52;29.87
50632;BME280;49583;45.590;-122.498;2023-07-28T00:16:39;101197.22;;;30.45;30.05
50632;BME280;49583;45.590;-122.498;2023-07-28T00:18:52;101194.99;;;30.39;30.04
50632;BME280;49583;45.590;-122.498;2023-07-28T00:21:07;101195.03;;;30.36;30.13
50632;BME280;49583;45.590;-122.498;2023-07-28T00:23:19;101188.66;;;30.36;30.26
50632;BME280;49583;45.590;-122.498;2023-07-28T00:25:32;101184.89;;;30.37;30.27
50632;BME280;49583;45.590;-122.498;2023-07-28T00:27:45;101186.98;;;30.37;30.14
50632;BME280;49583;45.590;-122.498;2023-07-28T00:29:58;101185.13;;;30.37;30.09
50632;BME280;49583;45.590;-122.498;2023-07-28T00:32:12;101184.87;;;30.36;30.00
50632;BME280;49583;45.590;-122.498;2023-07-28T00:34:25;101184.83;;;30.34;30.01
50632;BME280;49583;45.590;-122.498;2023-07-28T00:36:37;101181.83;;;30.33;30.25
50632;BME280;49583;45.590;-122.498;2023-07-28T00:38:51;101182.95;;;30.33;30.21
50632;BME280;49583;45.590;-122.498;2023-07-28T00:41:04;101177.02;;;30.32;29.93
50632;BME280;49583;45.590;-122.498;2023-07-28T00:43:17;101178.73;;;30.27;30.14
50632;BME280;49583;45.590;-122.498;2023-07-28T00:45:30;101179.46;;;30.28;30.11
50632;BME280;49583;45.590;-122.498;2023-07-28T00:47:43;101175.40;;;30.29;30.07
50632;BME280;49583;45.590;-122.498;2023-07-28T00:49:57;101175.88;;;30.31;30.13
50632;BME280;49583;45.590;-122.498;2023-07-28T00:52:11;101177.03;;;30.32;30.20
50632;BME280;49583;45.590;-122.498;2023-07-28T00:54:24;101174.33;;;30.31;30.05
50632;BME280;49583;45.590;-122.498;2023-07-28T00:56:38;101175.82;;;30.29;30.15
50632;BME280;49583;45.590;-122.498;2023-07-28T00:58:51;101173.27;;;30.30;30.18
50632;BME280;49583;45.590;-122.498;2023-07-28T01:01:04;101169.89;;;30.30;30.41
50632;BME280;49583;45.590;-122.498;2023-07-28T01:03:18;101168.17;;;30.28;30.31
50632;BME280;49583;45.590;-122.498;2023-07-28T01:05:36;101166.04;;;30.26;30.19
50632;BME280;49583;45.590;-122.498;2023-07-28T01:07:58;101164.48;;;30.21;30.10
50632;BME280;49583;45.590;-122.498;2023-07-28T01:10:14;101160.30;;;30.17;30.09
50632;BME280;49583;45.590;-122.498;2023-07-28T01:12:29;101159.91;;;30.13;30.04
50632;BME280;49583;45.590;-122.498;2023-07-28T01:14:42;101152.48;;;30.11;30.25
50632;BME280;49583;45.590;-122.498;2023-07-28T01:16:56;101156.10;;;30.09;30.17
50632;BME280;49583;45.590;-122.498;2023-07-28T01:19:09;101156.67;;;30.07;30.22
50632;BME280;49583;45.590;-122.498;2023-07-28T01:21:28;101153.79;;;30.04;30.32
50632;BME280;49583;45.590;-122.498;2023-07-28T01:23:48;101151.95;;;30.02;30.30
50632;BME280;49583;45.590;-122.498;2023-07-28T01:26:08;101151.27;;;30.00;30.23
50632;BME280;49583;45.590;-122.498;2023-07-28T01:28:22;101150.88;;;29.98;30.23
50632;BME280;49583;45.590;-122.498;2023-07-28T01:30:36;101150.45;;;29.94;30.18
50632;BME280;49583;45.590;-122.498;2023-07-28T01:32:49;101149.95;;;29.89;30.20
50632;BME280;49583;45.590;-122.498;2023-07-28T01:35:02;101150.83;;;29.84;30.28
50632;BME280;49583;45.590;-122.498;2023-07-28T01:37:15;101151.54;;;29.78;30.40
50632;BME280;49583;45.590;-122.498;2023-07-28T01:39:28;101153.22;;;29.74;30.50
50632;BME280;49583;45.590;-122.498;2023-07-28T01:41:41;101150.93;;;29.70;30.41
50632;BME280;49583;45.590;-122.498;2023-07-28T01:43:54;101153.23;;;29.65;30.31
50632;BME280;49583;45.590;-122.498;2023-07-28T01:46:07;101152.02;;;29.61;30.39
50632;BME280;49583;45.590;-122.498;2023-07-28T01:48:20;101152.13;;;29.56;30.45
50632;BME280;49583;45.590;-122.498;2023-07-28T01:50:33;101147.95;;;29.52;30.55
50632;BME280;49583;45.590;-122.498;2023-07-28T01:52:46;101150.41;;;29.46;30.62
50632;BME280;49583;45.590;-122.498;2023-07-28T01:54:59;101145.63;;;29.43;30.61
50632;BME280;49583;45.590;-122.498;2023-07-28T01:57:12;101143.46;;;29.40;30.74
50632;BME280;49583;45.590;-122.498;2023-07-28T01:59:25;101143.88;;;29.38;30.73
50632;BME280;49583;45.590;-122.498;2023-07-28T02:01:38;101140.71;;;29.37;30.65
50632;BME280;49583;45.590;-122.498;2023-07-28T02:03:51;101139.15;;;29.32;30.77
50632;BME280;49583;45.590;-122.498;2023-07-28T02:06:03;101139.53;;;29.31;30.85
50632;BME280;49583;45.590;-122.498;2023-07-28T02:08:17;101139.94;;;29.29;30.92
50632;BME280;49583;45.590;-122.498;2023-07-28T02:10:32;101142.35;;;29.27;31.00
50632;BME280;49583;45.590;-122.498;2023-07-28T02:12:45;101146.18;;;29.22;31.02
50632;BME280;49583;45.590;-122.498;2023-07-28T02:14:59;101144.00;;;29.19;31.16
50632;BME280;49583;45.590;-122.498;2023-07-28T02:17:11;101144.87;;;29.14;31.08
50632;BME280;49583;45.590;-122.498;2023-07-28T02:19:24;101150.90;;;29.11;31.29
50632;BME280;49583;45.590;-122.498;2023-07-28T02:21:38;101148.56;;;29.08;31.30
50632;BME280;49583;45.590;-122.498;2023-07-28T02:23:51;101153.66;;;29.02;31.39
50632;BME280;49583;45.590;-122.498;2023-07-28T02:26:04;101156.24;;;28.97;31.44
50632;BME280;49583;45.590;-122.498;2023-07-28T02:28:16;101156.67;;;28.91;31.63
50632;BME280;49583;45.590;-122.498;2023-07-28T02:30:31;101158.66;;;28.87;31.82
50632;BME280;49583;45.590;-122.498;2023-07-28T02:32:43;101157.66;;;28.82;31.90
50632;BME280;49583;45.590;-122.498;2023-07-28T02:34:56;101155.35;;;28.77;32.05
50632;BME280;49583;45.590;-122.498;2023-07-28T02:37:10;101159.81;;;28.70;32.23
50632;BME280;49583;45.590;-122.498;2023-07-28T02:39:22;101160.52;;;28.63;32.62
50632;BME280;49583;45.590;-122.498;2023-07-28T02:41:35;101161.23;;;28.57;32.75
50632;BME280;49583;45.590;-122.498;2023-07-28T02:43:48;101163.24;;;28.52;33.07
50632;BME280;49583;45.590;-122.498;2023-07-28T02:46:00;101161.79;;;28.47;33.35
50632;BME280;49583;45.590;-122.498;2023-07-28T02:48:13;101166.77;;;28.40;33.66
50632;BME280;49583;45.590;-122.498;2023-07-28T02:50:26;101168.98;;;28.35;33.78
50632;BME280;49583;45.590;-122.498;2023-07-28T02:52:38;101170.71;;;28.28;34.02
50632;BME280;49583;45.590;-122.498;2023-07-28T02:54:51;101174.19;;;28.23;34.10
50632;BME280;49583;45.590;-122.498;2023-07-28T02:57:04;101173.39;;;28.17;34.22
50632;BME280;49583;45.590;-122.498;2023-07-28T02:59:18;101177.66;;;28.11;34.31
50632;BME280;49583;45.590;-122.498;2023-07-28T03:01:31;101178.28;;;28.04;34.52
50632;BME280;49583;45.590;-122.498;2023-07-28T03:03:45;101176.99;;;27.94;34.53
50632;BME280;49583;45.590;-122.498;2023-07-28T03:05:59;101180.98;;;27.86;34.70
50632;BME280;49583;45.590;-122.498;2023-07-28T03:08:12;101180.15;;;27.79;34.85
50632;BME280;49583;45.590;-122.498;2023-07-28T03:10:25;101182.90;;;27.73;34.81
50632;BME280;49583;45.590;-122.498;2023-07-28T03:12:38;101182.91;;;27.65;35.12
50632;BME280;49583;45.590;-122.498;2023-07-28T03:14:51;101184.27;;;27.58;35.05
50632;BME280;49583;45.590;-122.498;2023-07-28T03:17:04;101183.83;;;27.48;35.25
50632;BME280;49583;45.590;-122.498;2023-07-28T03:19:17;101185.37;;;27.42;35.31
50632;BME280;49583;45.590;-122.498;2023-07-28T03:21:32;101186.02;;;27.35;35.41
50632;BME280;49583;45.590;-122.498;2023-07-28T03:23:48;101181.63;;;27.27;35.48
50632;BME280;49583;45.590;-122.498;2023-07-28T03:26:01;101182.19;;;27.21;35.47
50632;BME280;49583;45.590;-122.498;2023-07-28T03:28:14;101181.41;;;27.14;35.68
50632;BME280;49583;45.590;-122.498;2023-07-28T03:30:27;101181.63;;;27.06;35.94
50632;BME280;49583;45.590;-122.498;2023-07-28T03:32:41;101181.93;;;26.98;35.87
50632;BME280;49583;45.590;-122.498;2023-07-28T03:34:54;101186.39;;;26.91;35.96
50632;BME280;49583;45.590;-122.498;2023-07-28T03:37:08;101188.75;;;26.83;36.13
50632;BME280;49583;45.590;-122.498;2023-07-28T03:39:21;101191.55;;;26.75;36.18
50632;BME280;49583;45.590;-122.498;2023-07-28T03:41:34;101195.58;;;26.70;36.36
50632;BME280;49583;45.590;-122.498;2023-07-28T03:43:47;101194.42;;;26.60;36.37
50632;BME280;49583;45.590;-122.498;2023-07-28T03:46:00;101194.73;;;26.50;36.47
50632;BME280;49583;45.590;-122.498;2023-07-28T03:48:13;101193.79;;;26.40;36.38
50632;BME280;49583;45.590;-122.498;2023-07-28T03:50:26;101199.51;;;26.31;36.66
50632;BME280;49583;45.590;-122.498;2023-07-28T03:52:39;101200.68;;;26.22;36.44
50632;BME280;49583;45.590;-122.498;2023-07-28T03:54:51;101202.23;;;26.12;36.50
50632;BME280;49583;45.590;-122.498;2023-07-28T03:57:05;101206.70;;;26.03;36.83
50632;BME280;49583;45.590;-122.498;2023-07-28T03:59:18;101207.50;;;25.94;37.08
50632;BME280;49583;45.590;-122.498;2023-07-28T04:01:30;101206.51;;;25.86;37.15
50632;BME280;49583;45.590;-122.498;2023-07-28T04:03:43;101211.48;;;25.78;37.43
50632;BME280;49583;45.590;-122.498;2023-07-28T04:05:56;101213.02;;;25.72;37.48
50632;BME280;49583;45.590;-122.498;2023-07-28T04:08:09;101220.86;;;25.65;37.61
50632;BME280;49583;45.590;-122.498;2023-07-28T04:10:22;101224.50;;;25.59;37.72
50632;BME280;49583;45.590;-122.498;2023-07-28T04:12:35;101225.04;;;25.54;38.05
50632;BME280;49583;45.590;-122.498;2023-07-28T04:14:48;101226.75;;;25.46;38.08
50632;BME280;49583;45.590;-122.498;2023-07-28T04:17:02;101228.40;;;25.39;38.07
50632;BME280;49583;45.590;-122.498;2023-07-28T04:19:15;101225.77;;;25.34;38.23
50632;BME280;49583;45.590;-122.498;2023-07-28T04:21:27;101228.63;;;25.27;38.26
50632;BME280;49583;45.590;-122.498;2023-07-28T04:23:40;101226.86;;;25.19;38.51
50632;BME280;49583;45.590;-122.498;2023-07-28T04:25:53;101228.56;;;25.13;38.60
50632;BME280;49583;45.590;-122.498;2023-07-28T04:28:07;101230.58;;;25.08;38.81
50632;BME280;49583;45.590;-122.498;2023-07-28T04:30:20;101232.27;;;25.05;38.95
50632;BME280;49583;45.590;-122.498;2023-07-28T04:32:33;101239.55;;;24.99;39.05
50632;BME280;49583;45.590;-122.498;2023-07-28T04:34:54;101238.16;;;24.92;39.18
50632;BME280;49583;45.590;-122.498;2023-07-28T04:37:24;101242.27;;;24.84;39.39
50632;BME280;49583;45.590;-122.498;2023-07-28T04:39:39;101245.52;;;24.79;39.68
50632;BME280;49583;45.590;-122.498;2023-07-28T04:44:41;101248.91;;;24.65;39.85
50632;BME280;49583;45.590;-122.498;2023-07-28T04:46:56;101250.14;;;24.57;40.13
50632;BME280;49583;45.590;-122.498;2023-07-28T04:49:09;101250.45;;;24.52;40.26
50632;BME280;49583;45.590;-122.498;2023-07-28T04:51:48;101251.08;;;24.43;40.51
50632;BME280;49583;45.590;-122.498;2023-07-28T04:54:04;101251.74;;;24.37;40.66
50632;BME280;49583;45.590;-122.498;2023-07-28T04:56:17;101251.49;;;24.31;40.92
50632;BME280;49583;45.590;-122.498;2023-07-28T04:58:30;101254.01;;;24.26;41.15
50632;BME280;49583;45.590;-122.498;2023-07-28T05:00:42;101250.59;;;24.23;41.25
50632;BME280;49583;45.590;-122.498;2023-07-28T05:02:55;101252.67;;;24.17;41.51
50632;BME280;49583;45.590;-122.498;2023-07-28T05:05:12;101256.13;;;24.11;41.64
50632;BME280;49583;45.590;-122.498;2023-07-28T05:07:25;101254.93;;;24.05;41.95
50632;BME280;49583;45.590;-122.498;2023-07-28T05:09:39;101257.38;;;23.99;42.07
50632;BME280;49583;45.590;-122.498;2023-07-28T05:11:52;101256.30;;;23.95;42.37
50632;BME280;49583;45.590;-122.498;2023-07-28T05:14:06;101255.98;;;23.92;42.54
50632;BME280;49583;45.590;-122.498;2023-07-28T05:16:19;101258.50;;;23.86;42.73
50632;BME280;49583;45.590;-122.498;2023-07-28T05:18:52;101255.79;;;23.80;42.88
50632;BME280;49583;45.590;-122.498;2023-07-28T05:21:22;101259.40;;;23.72;43.00
50632;BME280;49583;45.590;-122.498;2023-07-28T05:23:35;101257.05;;;23.67;43.30
50632;BME280;49583;45.590;-122.498;2023-07-28T05:25:49;101256.88;;;23.61;43.39
50632;BME280;49583;45.590;-122.498;2023-07-28T05:28:01;101260.06;;;23.58;43.57
50632;BME280;49583;45.590;-122.498;2023-07-28T05:30:15;101261.10;;;23.51;43.63
50632;BME280;49583;45.590;-122.498;2023-07-28T05:32:28;101257.61;;;23.45;43.90
50632;BME280;49583;45.590;-122.498;2023-07-28T05:34:58;101254.67;;;23.40;43.93
50632;BME280;49583;45.590;-122.498;2023-07-28T05:37:11;101255.82;;;23.36;44.14
50632;BME280;49583;45.590;-122.498;2023-07-28T05:39:24;101257.73;;;23.32;44.24
50632;BME280;49583;45.590;-122.498;2023-07-28T05:41:36;101255.66;;;23.29;44.42
50632;BME280;49583;45.590;-122.498;2023-07-28T05:43:51;101254.42;;;23.23;44.52
50632;BME280;49583;45.590;-122.498;2023-07-28T05:46:04;101254.66;;;23.19;44.50
50632;BME280;49583;45.590;-122.498;2023-07-28T05:48:16;101253.52;;;23.13;44.76
50632;BME280;49583;45.590;-122.498;2023-07-28T05:50:29;101259.73;;;23.10;44.96
50632;BME280;49583;45.590;-122.498;2023-07-28T05:52:41;101258.10;;;23.04;45.03
50632;BME280;49583;45.590;-122.498;2023-07-28T05:54:54;101264.02;;;22.99;45.27
50632;BME280;49583;45.590;-122.498;2023-07-28T05:57:08;101265.30;;;22.95;45.28
50632;BME280;49583;45.590;-122.498;2023-07-28T05:59:21;101269.55;;;22.90;45.51
50632;BME280;49583;45.590;-122.498;2023-07-28T06:01:33;101270.40;;;22.84;45.77
50632;BME280;49583;45.590;-122.498;2023-07-28T06:03:46;101275.96;;;22.81;45.73
50632;BME280;49583;45.590;-122.498;2023-07-28T06:06:04;101280.46;;;22.75;45.71
50632;BME280;49583;45.590;-122.498;2023-07-28T06:08:17;101280.95;;;22.69;46.01
50632;BME280;49583;45.590;-122.498;2023-07-28T06:10:30;101280.04;;;22.62;46.13
50632;BME280;49583;45.590;-122.498;2023-07-28T06:12:42;101284.83;;;22.57;46.21
50632;BME280;49583;45.590;-122.498;2023-07-28T06:14:55;101285.16;;;22.52;46.44
50632;BME280;49583;45.590;-122.498;2023-07-28T06:17:08;101288.54;;;22.46;46.52
50632;BME280;49583;45.590;-122.498;2023-07-28T06:19:21;101286.27;;;22.40;46.59
50632;BME280;49583;45.590;-122.498;2023-07-28T06:21:36;101288.65;;;22.36;46.78
50632;BME280;49583;45.590;-122.498;2023-07-28T06:23:48;101291.09;;;22.32;46.89
50632;BME280;49583;45.590;-122.498;2023-07-28T06:26:01;101289.63;;;22.26;46.94
50632;BME280;49583;45.590;-122.498;2023-07-28T06:28:15;101291.35;;;22.22;47.11
50632;BME280;49583;45.590;-122.498;2023-07-28T06:30:28;101289.21;;;22.16;47.29
50632;BME280;49583;45.590;-122.498;2023-07-28T06:32:41;101291.21;;;22.12;47.32
50632;BME280;49583;45.590;-122.498;2023-07-28T06:34:54;101293.29;;;22.07;47.42
50632;BME280;49583;45.590;-122.498;2023-07-28T06:37:09;101294.63;;;22.02;47.52
50632;BME280;49583;45.590;-122.498;2023-07-28T06:39:22;101290.19;;;21.96;47.73
50632;BME280;49583;45.590;-122.498;2023-07-28T06:41:35;101291.59;;;21.91;47.71
50632;BME280;49583;45.590;-122.498;2023-07-28T06:43:49;101292.71;;;21.85;47.99
50632;BME280;49583;45.590;-122.498;2023-07-28T06:46:02;101295.59;;;21.79;48.21
50632;BME280;49583;45.590;-122.498;2023-07-28T06:48:14;101291.77;;;21.74;48.21
50632;BME280;49583;45.590;-122.498;2023-07-28T06:50:27;101291.27;;;21.70;48.43
50632;BME280;49583;45.590;-122.498;2023-07-28T06:52:40;101288.95;;;21.66;48.43
50632;BME280;49583;45.590;-122.498;2023-07-28T06:54:52;101293.45;;;21.62;48.67
50632;BME280;49583;45.590;-122.498;2023-07-28T06:57:06;101294.56;;;21.58;48.77
50632;BME280;49583;45.590;-122.498;2023-07-28T06:59:19;101297.33;;;21.53;48.83
50632;BME280;49583;45.590;-122.498;2023-07-28T07:01:32;101298.58;;;21.48;48.93
50632;BME280;49583;45.590;-122.498;2023-07-28T07:03:45;101299.60;;;21.43;48.98
50632;BME280;49583;45.590;-122.498;2023-07-28T07:05:58;101297.91;;;21.38;49.19
50632;BME280;49583;45.590;-122.498;2023-07-28T07:08:11;101298.38;;;21.34;49.29
50632;BME280;49583;45.590;-122.498;2023-07-28T07:10:24;101301.11;;;21.31;49.40
50632;BME280;49583;45.590;-122.498;2023-07-28T07:12:37;101296.00;;;21.28;49.43
50632;BME280;49583;45.590;-122.498;2023-07-28T07:14:50;101297.46;;;21.24;49.56
50632;BME280;49583;45.590;-122.498;2023-07-28T07:17:03;101295.79;;;21.20;49.68
50632;BME280;49583;45.590;-122.498;2023-07-28T07:19:15;101304.40;;;21.14;49.76
50632;BME280;49583;45.590;-122.498;2023-07-28T07:21:29;101302.80;;;21.09;49.81
50632;BME280;49583;45.590;-122.498;2023-07-28T07:23:42;101302.48;;;21.04;49.99
50632;BME280;49583;45.590;-122.498;2023-07-28T07:26:06;101304.27;;;20.98;50.07
50632;BME280;49583;45.590;-122.498;2023-07-28T07:28:19;101302.50;;;20.93;50.19
50632;BME280;49583;45.590;-122.498;2023-07-28T07:30:34;101306.67;;;20.90;50.43
50632;BME280;49583;45.590;-122.498;2023-07-28T07:32:47;101307.52;;;20.86;50.45
50632;BME280;49583;45.590;-122.498;2023-07-28T07:34:59;101313.46;;;20.81;50.51
50632;BME280;49583;45.590;-122.498;2023-07-28T07:37:12;101316.91;;;20.78;50.61
50632;BME280;49583;45.590;-122.498;2023-07-28T07:39:24;101315.67;;;20.74;50.85
50632;BME280;49583;45.590;-122.498;2023-07-28T07:41:37;101316.98;;;20.71;50.94
50632;BME280;49583;45.590;-122.498;2023-07-28T07:43:52;101318.82;;;20.68;51.05
50632;BME280;49583;45.590;-122.498;2023-07-28T07:46:04;101321.02;;;20.65;51.03
50632;BME280;49583;45.590;-122.498;2023-07-28T07:48:17;101324.33;;;20.60;51.20
50632;BME280;49583;45.590;-122.498;2023-07-28T07:50:30;101325.57;;;20.54;51.17
50632;BME280;49583;45.590;-122.498;2023-07-28T07:52:43;101330.31;;;20.49;51.31
50632;BME280;49583;45.590;-122.498;2023-07-28T07:54:55;101328.73;;;20.46;51.50
50632;BME280;49583;45.590;-122.498;2023-07-28T07:57:08;101331.87;;;20.44;51.62
50632;BME280;49583;45.590;-122.498;2023-07-28T07:59:21;101328.09;;;20.40;51.72
50632;BME280;49583;45.590;-122.498;2023-07-28T08:01:36;101326.30;;;20.36;51.79
50632;BME280;49583;45.590;-122.498;2023-07-28T08:03:49;101322.09;;;20.33;51.92
50632;BME280;49583;45.590;-122.498;2023-07-28T08:06:01;101323.20;;;20.31;52.03
50632;BME280;49583;45.590;-122.498;2023-07-28T08:08:15;101326.73;;;20.27;52.11
50632;BME280;49583;45.590;-122.498;2023-07-28T08:10:29;101328.97;;;20.26;52.16
50632;BME280;49583;45.590;-122.498;2023-07-28T08:12:43;101327.63;;;20.23;52.30
50632;BME280;49583;45.590;-122.498;2023-07-28T08:14:57;101328.46;;;20.20;52.29
50632;BME280;49583;45.590;-122.498;2023-07-28T08:17:11;101323.39;;;20.17;52.40
50632;BME280;49583;45.590;-122.498;2023-07-28T08:19:24;101323.41;;;20.14;52.48
50632;BME280;49583;45.590;-122.498;2023-07-28T08:21:36;101321.94;;;20.11;52.64
50632;BME280;49583;45.590;-122.498;2023-07-28T08:23:49;101320.36;;;20.09;52.64
50632;BME280;49583;45.590;-122.498;2023-07-28T08:26:01;101322.83;;;20.06;52.73
50632;BME280;49583;45.590;-122.498;2023-07-28T08:28:14;101321.91;;;20.03;52.74
50632;BME280;49583;45.590;-122.498;2023-07-28T08:30:27;101320.65;;;20.00;52.89
50632;BME280;49583;45.590;-122.498;2023-07-28T08:32:39;101321.88;;;19.96;52.97
50632;BME280;49583;45.590;-122.498;2023-07-28T08:34:52;101322.37;;;19.93;52.96
50632;BME280;49583;45.590;-122.498;2023-07-28T08:37:05;101325.25;;;19.90;53.14
50632;BME280;49583;45.590;-122.498;2023-07-28T08:39:19;101326.55;;;19.88;53.22
50632;BME280;49583;45.590;-122.498;2023-07-28T08:41:32;101326.55;;;19.87;53.37
50632;BME280;49583;45.590;-122.498;2023-07-28T08:43:45;101327.91;;;19.84;53.36
50632;BME280;49583;45.590;-122.498;2023-07-28T08:45:58;101327.05;;;19.83;53.38
50632;BME280;49583;45.590;-122.498;2023-07-28T08:48:10;101324.15;;;19.78;53.49
50632;BME280;49583;45.590;-122.498;2023-07-28T08:50:23;101325.90;;;19.76;53.46
50632;BME280;49583;45.590;-122.498;2023-07-28T08:52:36;101323.31;;;19.72;53.49
50632;BME280;49583;45.590;-122.498;2023-07-28T08:54:49;101323.00;;;19.70;53.51
50632;BME280;49583;45.590;-122.498;2023-07-28T08:57:02;101327.48;;;19.64;53.61
50632;BME280;49583;45.590;-122.498;2023-07-28T08:59:23;101328.71;;;19.56;53.76
50632;BME280;49583;45.590;-122.498;2023-07-28T09:01:38;101328.60;;;19.48;53.88
50632;BME280;49583;45.590;-122.498;2023-07-28T09:03:52;101328.42;;;19.43;53.99
50632;BME280;49583;45.590;-122.498;2023-07-28T09:06:05;101321.79;;;19.37;54.18
50632;BME280;49583;45.590;-122.498;2023-07-28T09:08:19;101322.21;;;19.30;54.35
50632;BME280;49583;45.590;-122.498;2023-07-28T09:10:42;101320.26;;;19.25;54.39
50632;BME280;49583;45.590;-122.498;2023-07-28T09:12:55;101317.82;;;19.19;54.57
50632;BME280;49583;45.590;-122.498;2023-07-28T09:15:10;101319.58;;;19.15;54.61
50632;BME280;49583;45.590;-122.498;2023-07-28T09:17:23;101319.36;;;19.10;54.88
50632;BME280;49583;45.590;-122.498;2023-07-28T09:19:36;101312.15;;;19.06;54.89
50632;BME280;49583;45.590;-122.498;2023-07-28T09:22:04;101317.17;;;19.03;55.02
50632;BME280;49583;45.590;-122.498;2023-07-28T09:24:17;101315.98;;;19.00;55.19
50632;BME280;49583;45.590;-122.498;2023-07-28T09:26:39;101317.59;;;18.96;55.30
50632;BME280;49583;45.590;-122.498;2023-07-28T09:28:52;101317.75;;;18.93;55.35
50632;BME280;49583;45.590;-122.498;2023-07-28T09:31:06;101319.26;;;18.90;55.31
50632;BME280;49583;45.590;-122.498;2023-07-28T09:33:34;101318.25;;;18.88;55.56
50632;BME280;49583;45.590;-122.498;2023-07-28T09:35:53;101321.48;;;18.85;55.61
50632;BME280;49583;45.590;-122.498;2023-07-28T09:38:06;101316.75;;;18.81;55.75
50632;BME280;49583;45.590;-122.498;2023-07-28T09:40:22;101317.95;;;18.80;55.77
50632;BME280;49583;45.590;-122.498;2023-07-28T09:42:36;101319.14;;;18.76;55.85
50632;BME280;49583;45.590;-122.498;2023-07-28T09:44:49;101319.45;;;18.74;55.96
50632;BME280;49583;45.590;-122.498;2023-07-28T09:47:02;101317.40;;;18.68;56.06
50632;BME280;49583;45.590;-122.498;2023-07-28T09:49:19;101322.09;;;18.62;56.11
50632;BME280;49583;45.590;-122.498;2023-07-28T09:51:33;101324.54;;;18.57;56.08
50632;BME280;49583;45.590;-122.498;2023-07-28T09:53:49;101327.86;;;18.51;56.34
50632;BME280;49583;45.590;-122.498;2023-07-28T09:56:03;101329.92;;;18.46;56.44
50632;BME280;49583;45.590;-122.498;2023-07-28T09:58:18;101328.73;;;18.43;56.57
50632;BME280;49583;45.590;-122.498;2023-07-28T10:00:33;101322.80;;;18.41;56.66
50632;BME280;49583;45.590;-122.498;2023-07-28T10:02:46;101320.59;;;18.40;56.74
50632;BME280;49583;45.590;-122.498;2023-07-28T10:05:00;101317.64;;;18.39;56.87
50632;BME280;49583;45.590;-122.498;2023-07-28T10:07:12;101317.95;;;18.37;56.85
50632;BME280;49583;45.590;-122.498;2023-07-28T10:09:26;101317.64;;;18.36;56.88
50632;BME280;49583;45.590;-122.498;2023-07-28T10:11:40;101322.17;;;18.34;56.86
50632;BME280;49583;45.590;-122.498;2023-07-28T10:13:54;101322.33;;;18.31;56.99
50632;BME280;49583;45.590;-122.498;2023-07-28T10:16:07;101324.45;;;18.30;56.94
50632;BME280;49583;45.590;-122.498;2023-07-28T10:18:21;101324.07;;;18.28;57.02
50632;BME280;49583;45.590;-122.498;2023-07-28T10:20:35;101324.31;;;18.26;57.11
50632;BME280;49583;45.590;-122.498;2023-07-28T10:22:50;101319.55;;;18.24;57.09
50632;BME280;49583;45.590;-122.498;2023-07-28T10:25:05;101323.81;;;18.22;57.10
50632;BME280;49583;45.590;-122.498;2023-07-28T10:27:30;101322.88;;;18.18;57.20
50632;BME280;49583;45.590;-122.498;2023-07-28T10:29:58;101324.53;;;18.16;57.31
50632;BME280;49583;45.590;-122.498;2023-07-28T10:32:34;101328.89;;;18.14;57.32
50632;BME280;49583;45.590;-122.498;2023-07-28T10:35:01;101329.77;;;18.10;57.44
50632;BME280;49583;45.590;-122.498;2023-07-28T10:37:16;101330.86;;;18.06;57.53
50632;BME280;49583;45.590;-122.498;2023-07-28T10:39:29;101333.55;;;18.03;57.51
50632;BME280;49583;45.590;-122.498;2023-07-28T10:41:48;101333.39;;;18.00;57.73
50632;BME280;49583;45.590;-122.498;2023-07-28T10:44:12;101334.57;;;17.96;57.71
50632;BME280;49583;45.590;-122.498;2023-07-28T10:46:25;101334.65;;;17.93;57.75
50632;BME280;49583;45.590;-122.498;2023-07-28T10:48:44;101335.83;;;17.91;58.03
50632;BME280;49583;45.590;-122.498;2023-07-28T10:50:57;101334.88;;;17.88;58.00
50632;BME280;49583;45.590;-122.498;2023-07-28T10:53:13;101335.02;;;17.85;58.14
50632;BME280;49583;45.590;-122.498;2023-07-28T10:55:27;101335.02;;;17.83;58.28
50632;BME280;49583;45.590;-122.498;2023-07-28T10:57:40;101334.94;;;17.81;58.36
50632;BME280;49583;45.590;-122.498;2023-07-28T10:59:53;101332.96;;;17.79;58.49
50632;BME280;49583;45.590;-122.498;2023-07-28T11:02:06;101330.81;;;17.77;58.42
50632;BME280;49583;45.590;-122.498;2023-07-28T11:04:19;101332.14;;;17.74;58.54
50632;BME280;49583;45.590;-122.498;2023-07-28T11:06:33;101333.51;;;17.72;58.67
50632;BME280;49583;45.590;-122.498;2023-07-28T11:08:46;101335.39;;;17.71;58.76
50632;BME280;49583;45.590;-122.498;2023-07-28T11:10:58;101335.46;;;17.69;58.78
50632;BME280;49583;45.590;-122.498;2023-07-28T11:13:11;101334.17;;;17.66;58.87
50632;BME280;49583;45.590;-122.498;2023-07-28T11:15:44;101340.42;;;17.64;58.90
50632;BME280;49583;45.590;-122.498;2023-07-28T11:17:57;101345.48;;;17.61;59.11